KGNV 230353Z AUTO 28006KT 10SM CLR 12/08 A3014 RMK AO2 SLP205 T01220078